createdAt,value
2023-05-13T00:02:21.601Z,16.28
2023-05-13T00:04:46.535Z,16.32
2023-05-13T00:07:12.371Z,16.45
2023-05-13T00:09:38.380Z,16.43
2023-05-13T00:10:48.029Z,16.34
2023-05-13T00:13:11.535Z,16.46
2023-05-13T00:14:26.300Z,16.30
2023-05-13T00:15:37.298Z,16.27
2023-05-13T00:16:46.518Z,16.35
2023-05-13T00:17:55.528Z,16.26
2023-05-13T00:20:20.459Z,16.38
2023-05-13T00:21:30.885Z,16.21
2023-05-13T00:23:55.120Z,16.24
2023-05-13T00:26:21.467Z,16.21
2023-05-13T00:28:49.328Z,16.21
2023-05-13T00:31:16.214Z,16.16
2023-05-13T00:32:26.677Z,16.09
2023-05-13T00:33:36.725Z,16.07
2023-05-13T00:34:46.225Z,16.05
2023-05-13T00:37:11.577Z,16.12
2023-05-13T00:39:36.057Z,16.02
2023-05-13T00:40:47.051Z,15.84
2023-05-13T00:43:11.510Z,15.91
2023-05-13T00:45:38.323Z,15.90
2023-05-13T00:46:48.453Z,15.78
2023-05-13T00:47:59.295Z,15.76
2023-05-13T00:50:25.739Z,15.81
2023-05-13T00:51:39.497Z,15.80
2023-05-13T00:52:51.332Z,15.88
2023-05-13T00:54:01.069Z,15.78
2023-05-13T00:56:27.944Z,15.90
2023-05-13T00:58:56.615Z,15.99
2023-05-13T01:00:08.736Z,15.91
2023-05-13T01:01:33.439Z,15.96
2023-05-13T01:04:39.288Z,16.11
2023-05-13T01:07:42.128Z,16.11
2023-05-13T01:10:33.137Z,16.13
2023-05-13T01:11:45.255Z,16.06
2023-05-13T01:14:27.138Z,16.05
2023-05-13T01:17:00.350Z,15.97
2023-05-13T01:19:43.511Z,15.94
2023-05-13T01:20:53.992Z,15.80
2023-05-13T01:22:03.282Z,15.82
2023-05-13T01:23:12.652Z,15.81
2023-05-13T01:24:22.738Z,15.82
2023-05-13T01:26:47.302Z,15.83
2023-05-13T01:29:14.095Z,15.82
2023-05-13T01:31:40.959Z,15.73
2023-05-13T01:32:52.818Z,15.64
2023-05-13T01:34:03.686Z,15.70
2023-05-13T01:36:30.245Z,15.82
2023-05-13T01:38:57.171Z,15.86
2023-05-13T01:41:25.573Z,15.87
2023-05-13T01:43:52.714Z,15.81
2023-05-13T01:45:04.160Z,15.76
2023-05-13T01:46:14.093Z,15.75
2023-05-13T01:48:38.593Z,15.88
2023-05-13T01:49:48.481Z,15.79
2023-05-13T01:52:14.352Z,15.99
2023-05-13T01:54:37.967Z,15.95
2023-05-13T01:55:49.396Z,15.79
2023-05-13T01:58:14.387Z,15.88
2023-05-13T01:59:24.240Z,15.78
2023-05-13T02:00:33.967Z,15.77
2023-05-13T02:03:01.484Z,15.92
2023-05-13T02:05:25.959Z,15.91
2023-05-13T02:07:50.655Z,15.91
2023-05-13T02:10:35.044Z,15.99
2023-05-13T02:11:46.526Z,15.83
2023-05-13T02:12:55.507Z,15.80
2023-05-13T02:15:19.795Z,15.91
2023-05-13T02:16:29.826Z,15.77
2023-05-13T02:18:58.615Z,15.96
2023-05-13T02:21:26.996Z,15.87
2023-05-13T02:23:51.143Z,15.89
2023-05-13T02:24:59.797Z,15.82
2023-05-13T02:27:24.167Z,15.90
2023-05-13T02:28:33.831Z,15.65
2023-05-13T02:29:43.603Z,15.67
2023-05-13T02:30:52.749Z,15.72
2023-05-13T02:33:17.994Z,15.85
2023-05-13T02:35:45.666Z,15.87
2023-05-13T02:36:54.872Z,15.78
2023-05-13T02:39:20.071Z,15.95
2023-05-13T02:42:05.636Z,16.11
2023-05-13T02:43:15.703Z,15.99
2023-05-13T02:45:44.517Z,16.08
2023-05-13T02:48:11.530Z,16.18
2023-05-13T02:55:25.832Z,16.37
2023-05-13T02:57:50.002Z,16.64
2023-05-13T02:58:58.802Z,16.55
2023-05-13T03:01:26.352Z,16.57
2023-05-13T03:02:36.834Z,16.50
2023-05-13T03:05:01.728Z,16.66
2023-05-13T03:07:27.295Z,16.76
2023-05-13T03:08:36.316Z,16.50
2023-05-13T03:09:45.865Z,16.56
2023-05-13T03:12:10.939Z,16.49
2023-05-13T03:13:21.017Z,16.35
2023-05-13T03:15:46.248Z,16.60
2023-05-13T03:16:55.642Z,16.57
2023-05-13T03:19:20.429Z,16.90
2023-05-13T03:21:46.450Z,17.17
2023-05-13T03:24:12.784Z,17.63
2023-05-13T03:25:23.134Z,17.75
2023-05-13T03:26:36.008Z,17.96
2023-05-13T03:27:44.585Z,18.10
2023-05-13T03:28:54.129Z,18.13
2023-05-13T03:31:22.420Z,19.23
2023-05-13T03:33:47.452Z,20.24
2023-05-13T03:36:13.777Z,21.19
2023-05-13T03:37:24.658Z,21.52
2023-05-13T03:39:48.081Z,22.40
2023-05-13T03:42:12.436Z,22.90
2023-05-13T03:43:22.641Z,22.71
2023-05-13T03:44:34.321Z,22.37
2023-05-13T03:47:00.127Z,22.40
2023-05-13T03:49:26.528Z,22.34
2023-05-13T03:50:36.066Z,22.33
2023-05-13T03:51:46.640Z,22.44
2023-05-13T03:52:56.733Z,22.57
2023-05-13T03:55:24.251Z,22.81
2023-05-13T03:57:50.086Z,22.64
2023-05-13T04:00:16.956Z,22.65
2023-05-13T04:02:40.743Z,22.61
2023-05-13T04:03:49.904Z,22.45
2023-05-13T04:06:35.701Z,22.40
2023-05-13T04:09:03.126Z,22.36
2023-05-13T04:11:28.239Z,22.28
2023-05-13T04:12:44.845Z,22.16
2023-05-13T04:13:53.970Z,22.14
2023-05-13T04:15:03.089Z,22.08
2023-05-13T04:17:28.862Z,22.10
2023-05-13T04:19:55.077Z,22.00
2023-05-13T04:22:25.740Z,21.85
2023-05-13T04:24:55.580Z,21.74
2023-05-13T04:26:05.286Z,21.66
2023-05-13T04:28:29.875Z,21.82
2023-05-13T04:30:54.204Z,21.85
2023-05-13T04:32:04.342Z,21.73
2023-05-13T04:33:14.271Z,21.71
2023-05-13T04:34:24.811Z,21.85
2023-05-13T04:35:34.278Z,21.93
2023-05-13T04:38:00.993Z,22.01
2023-05-13T04:40:27.085Z,21.94
2023-05-13T04:42:54.321Z,21.95
2023-05-13T04:45:22.913Z,22.05
2023-05-13T04:46:32.669Z,21.92
2023-05-13T04:48:57.368Z,21.98
2023-05-13T04:51:23.781Z,22.25
2023-05-13T04:53:48.754Z,22.50
2023-05-13T04:56:13.290Z,22.47
2023-05-13T04:57:22.755Z,22.50
2023-05-13T04:59:46.855Z,22.84
2023-05-13T05:02:12.136Z,22.87
2023-05-13T05:04:38.693Z,23.01
2023-05-13T05:07:05.471Z,23.14
2023-05-13T05:08:15.585Z,22.94
2023-05-13T05:10:39.486Z,23.30
2023-05-13T05:13:05.900Z,23.51
2023-05-13T05:15:31.519Z,23.73
2023-05-13T05:17:57.780Z,23.62
2023-05-13T05:20:21.834Z,23.61
2023-05-13T05:22:47.212Z,23.85
2023-05-13T05:25:13.340Z,24.15
2023-05-13T05:26:25.504Z,24.11
2023-05-13T05:27:35.190Z,23.80
2023-05-13T05:30:10.368Z,24.08
2023-05-13T05:31:19.930Z,24.11
2023-05-13T05:32:30.437Z,24.28
2023-05-13T05:33:41.135Z,24.35
2023-05-13T05:34:50.273Z,24.44
2023-05-13T05:36:01.601Z,24.55
2023-05-13T05:38:28.770Z,24.84
2023-05-13T05:40:58.898Z,25.02
2023-05-13T05:43:24.273Z,25.16
2023-05-13T05:44:35.374Z,25.11
2023-05-13T05:47:00.535Z,25.30
2023-05-13T05:49:24.826Z,25.31
2023-05-13T05:51:50.937Z,25.18
2023-05-13T05:54:16.129Z,25.21
2023-05-13T05:56:36.333Z,25.11
2023-05-13T05:57:46.000Z,25.12
2023-05-13T06:00:12.934Z,25.51
2023-05-13T06:01:24.725Z,25.52
2023-05-13T06:02:35.382Z,25.62
2023-05-13T06:03:46.707Z,25.72
2023-05-13T06:06:11.696Z,25.97
2023-05-13T06:08:35.728Z,26.10
2023-05-13T06:09:45.941Z,26.05
2023-05-13T06:12:10.066Z,25.98
2023-05-13T06:13:18.663Z,25.92
2023-05-13T06:16:04.377Z,26.16
2023-05-13T06:18:31.758Z,26.29
2023-05-13T06:20:58.755Z,26.42
2023-05-13T06:23:23.156Z,26.51
2023-05-13T06:25:48.155Z,26.10
2023-05-13T06:26:56.917Z,26.04
2023-05-13T06:29:21.274Z,26.22
2023-05-13T06:31:46.617Z,26.23
2023-05-13T06:34:12.924Z,26.46
2023-05-13T06:36:38.660Z,26.70
2023-05-13T06:39:05.338Z,26.88
2023-05-13T06:41:31.178Z,26.93
2023-05-13T06:43:58.983Z,26.83
2023-05-13T06:46:25.025Z,26.77
2023-05-13T06:47:36.230Z,26.68
2023-05-13T06:48:45.680Z,26.70
2023-05-13T06:51:11.096Z,26.92
2023-05-13T06:53:34.778Z,26.97
2023-05-13T06:55:58.540Z,26.94
2023-05-13T06:58:22.736Z,27.06
2023-05-13T07:00:46.737Z,27.12
2023-05-13T07:03:12.417Z,27.27
2023-05-13T07:05:37.112Z,27.02
2023-05-13T07:08:03.844Z,27.07
2023-05-13T07:10:29.578Z,27.22
2023-05-13T07:11:38.588Z,27.19
2023-05-13T07:14:02.958Z,27.18
2023-05-13T07:15:11.634Z,26.88
2023-05-13T07:16:21.090Z,26.87
2023-05-13T07:17:31.246Z,26.94
2023-05-13T07:18:40.669Z,27.01
2023-05-13T07:19:49.988Z,27.03
2023-05-13T07:22:14.083Z,26.79
2023-05-13T07:24:39.051Z,26.83
2023-05-13T07:27:04.149Z,26.90
2023-05-13T07:29:28.062Z,26.40
2023-05-13T07:31:57.277Z,26.48
2023-05-13T07:34:21.790Z,26.30
2023-05-13T07:36:47.164Z,25.91
2023-05-13T07:37:56.437Z,25.71
2023-05-13T07:40:30.269Z,25.80
2023-05-13T07:42:54.881Z,25.77
2023-05-13T07:45:27.807Z,25.56
2023-05-13T07:47:51.730Z,25.41
2023-05-13T07:50:17.037Z,25.21
2023-05-13T07:52:47.466Z,25.28
2023-05-13T07:55:11.616Z,25.10
2023-05-13T07:57:37.840Z,25.01
2023-05-13T08:00:02.956Z,24.90
2023-05-13T08:02:32.240Z,24.97
2023-05-13T08:04:57.158Z,24.94
2023-05-13T08:07:21.329Z,24.51
2023-05-13T08:10:05.971Z,24.36
2023-05-13T08:12:31.279Z,24.50
2023-05-13T08:13:41.733Z,24.47
2023-05-13T08:16:07.374Z,24.20
2023-05-13T08:18:36.577Z,24.37
2023-05-13T08:21:01.416Z,24.40
2023-05-13T08:23:43.544Z,24.37
2023-05-13T08:25:58.208Z,24.30
2023-05-13T08:28:23.593Z,24.24
2023-05-13T08:30:49.549Z,24.08
2023-05-13T08:33:13.357Z,23.96
2023-05-13T08:35:37.437Z,23.87
2023-05-13T08:38:04.147Z,23.96
2023-05-13T08:40:28.934Z,23.85
2023-05-13T08:42:56.080Z,23.99
2023-05-13T08:45:28.207Z,24.06
2023-05-13T08:46:39.080Z,23.92
2023-05-13T08:49:14.588Z,24.04
2023-05-13T08:50:25.314Z,23.94
2023-05-13T08:52:53.495Z,23.98
2023-05-13T08:55:20.324Z,24.01
2023-05-13T08:57:46.630Z,24.02
2023-05-13T09:00:13.969Z,24.06
2023-05-13T09:02:41.340Z,24.18
2023-05-13T09:05:20.436Z,24.27
2023-05-13T09:07:47.191Z,24.21
2023-05-13T09:10:12.575Z,24.20
2023-05-13T09:12:51.193Z,24.15
2023-05-13T09:15:24.934Z,24.07
2023-05-13T09:16:37.057Z,23.90
2023-05-13T09:19:08.209Z,23.89
2023-05-13T09:21:35.815Z,23.85
2023-05-13T09:24:11.454Z,23.81
2023-05-13T09:26:41.870Z,23.79
2023-05-13T09:27:58.135Z,23.65
2023-05-13T09:30:44.573Z,23.61
2023-05-13T09:33:13.103Z,23.57
2023-05-13T09:35:50.522Z,23.55
2023-05-13T09:38:23.755Z,23.59
2023-05-13T09:40:58.151Z,23.58
2023-05-13T09:43:34.287Z,23.58
2023-05-13T09:46:05.000Z,23.62
2023-05-13T09:48:33.510Z,23.65
2023-05-13T09:51:00.063Z,23.79
2023-05-13T09:53:28.150Z,23.90
2023-05-13T09:55:55.534Z,23.97
2023-05-13T09:58:24.043Z,23.84
2023-05-13T10:00:51.341Z,23.98
2023-05-13T10:03:18.783Z,23.67
2023-05-13T10:05:43.743Z,23.70
2023-05-13T10:09:30.673Z,23.58
2023-05-13T10:11:59.895Z,23.51
2023-05-13T10:13:11.831Z,23.46
2023-05-13T10:15:52.420Z,23.38
2023-05-13T10:18:18.733Z,23.33
2023-05-13T10:20:43.629Z,23.01
2023-05-13T10:23:09.341Z,23.19
2023-05-13T10:25:35.005Z,23.22
2023-05-13T10:28:03.090Z,23.21
2023-05-13T10:30:36.657Z,23.37
2023-05-13T10:33:04.381Z,23.54
2023-05-13T10:35:32.718Z,23.70
2023-05-13T10:38:46.299Z,23.88
2023-05-13T10:42:04.843Z,23.98
2023-05-13T10:44:37.874Z,23.80
2023-05-13T10:47:11.812Z,23.77
2023-05-13T10:49:38.176Z,23.79
2023-05-13T10:52:14.825Z,23.81
2023-05-13T10:54:42.714Z,23.84
2023-05-13T10:57:12.920Z,23.79
2023-05-13T11:00:00.790Z,23.86
2023-05-13T11:02:53.166Z,23.98
2023-05-13T11:05:21.299Z,24.05
2023-05-13T11:08:11.469Z,24.06
2023-05-13T11:10:41.329Z,23.97
2023-05-13T11:13:18.609Z,24.06
2023-05-13T11:15:47.677Z,24.19
2023-05-13T11:18:26.518Z,24.25
2023-05-13T11:20:54.527Z,24.24
2023-05-13T11:25:18.488Z,24.16
2023-05-13T11:28:04.239Z,24.11
2023-05-13T11:30:30.372Z,24.06
2023-05-13T11:33:10.024Z,24.02
2023-05-13T11:35:37.016Z,23.89
2023-05-13T11:38:06.078Z,23.82
2023-05-13T11:40:37.867Z,23.84
2023-05-13T11:43:09.160Z,23.95
2023-05-13T11:45:40.481Z,24.03
2023-05-13T11:48:23.909Z,23.94
2023-05-13T11:50:57.625Z,23.94
2023-05-13T11:53:25.349Z,23.93
2023-05-13T11:56:10.542Z,23.94
2023-05-13T11:58:41.288Z,24.09
2023-05-13T12:01:15.965Z,24.10
2023-05-13T12:03:49.418Z,24.07
2023-05-13T12:06:19.089Z,24.11
2023-05-13T12:08:46.602Z,24.26
2023-05-13T12:11:14.211Z,24.43
2023-05-13T12:13:42.761Z,24.56
2023-05-13T12:16:08.286Z,24.63
2023-05-13T12:18:34.546Z,24.76
2023-05-13T12:21:34.130Z,24.89
2023-05-13T12:24:19.007Z,24.91
2023-05-13T12:27:09.471Z,24.71
2023-05-13T12:28:24.369Z,24.61
2023-05-13T12:29:41.047Z,24.57
2023-05-13T12:32:11.403Z,24.22
2023-05-13T12:34:38.637Z,24.26
2023-05-13T12:37:14.308Z,24.22
2023-05-13T12:39:42.434Z,24.20
2023-05-13T12:43:33.821Z,24.12
2023-05-13T12:44:45.128Z,23.99
2023-05-13T12:45:54.344Z,23.99
2023-05-13T12:47:04.957Z,23.97
2023-05-13T12:48:14.028Z,23.86
2023-05-13T12:50:39.458Z,23.82
2023-05-13T12:53:05.793Z,23.87
2023-05-13T12:55:31.240Z,23.93
2023-05-13T12:58:04.517Z,23.95
2023-05-13T13:00:30.850Z,24.00
2023-05-13T13:02:57.235Z,24.05
2023-05-13T13:04:07.188Z,23.97
2023-05-13T13:06:32.044Z,24.11
2023-05-13T13:08:57.676Z,24.20
2023-05-13T13:11:22.707Z,24.21
2023-05-13T13:13:50.188Z,24.16
2023-05-13T13:16:14.363Z,24.15
2023-05-13T13:18:40.224Z,24.20
2023-05-13T13:21:06.813Z,24.28
2023-05-13T13:23:32.404Z,24.31
2023-05-13T13:25:58.789Z,24.25
2023-05-13T13:28:42.889Z,24.29
2023-05-13T13:31:08.894Z,24.28
2023-05-13T13:33:34.816Z,24.28
2023-05-13T13:35:59.679Z,24.15
2023-05-13T13:38:24.618Z,24.05
2023-05-13T13:40:50.227Z,24.13
2023-05-13T13:43:33.702Z,24.20
2023-05-13T13:46:04.652Z,24.12
2023-05-13T13:48:28.439Z,24.09
2023-05-13T13:50:53.253Z,24.09
2023-05-13T13:53:18.476Z,24.05
2023-05-13T13:55:43.113Z,24.08
2023-05-13T13:58:08.514Z,24.12
2023-05-13T14:00:34.386Z,24.12
2023-05-13T14:03:02.342Z,24.13
2023-05-13T14:06:41.167Z,24.16
2023-05-13T14:09:10.350Z,24.22
2023-05-13T14:11:36.505Z,24.30
2023-05-13T14:14:00.977Z,24.41
2023-05-13T14:16:27.875Z,24.43
2023-05-13T14:18:52.032Z,24.40
2023-05-13T14:21:17.613Z,24.36
2023-05-13T14:23:42.078Z,24.38
2023-05-13T14:26:09.157Z,24.25
2023-05-13T14:28:32.918Z,24.21
2023-05-13T14:30:57.404Z,24.15
2023-05-13T14:33:22.928Z,24.07
2023-05-13T14:34:34.012Z,23.84
2023-05-13T14:36:58.198Z,24.03
2023-05-13T14:39:24.583Z,23.97
2023-05-13T14:41:49.305Z,23.99
2023-05-13T14:44:14.591Z,23.93
2023-05-13T14:46:40.093Z,23.71
2023-05-13T14:49:09.868Z,23.63
2023-05-13T14:51:55.482Z,23.62
2023-05-13T14:54:19.867Z,23.26
2023-05-13T14:56:45.028Z,23.36
2023-05-13T14:59:10.655Z,23.24
2023-05-13T15:01:38.712Z,23.34
2023-05-13T15:04:03.014Z,23.42
2023-05-13T15:06:28.611Z,23.49
2023-05-13T15:08:54.373Z,23.53
2023-05-13T15:11:21.254Z,23.61
2023-05-13T15:13:47.911Z,23.67
2023-05-13T15:16:13.460Z,23.66
2023-05-13T15:18:39.098Z,23.67
2023-05-13T15:21:03.160Z,23.67
2023-05-13T15:23:32.525Z,23.72
2023-05-13T15:25:56.447Z,23.75
2023-05-13T15:28:21.312Z,23.80
2023-05-13T15:30:46.320Z,23.85
2023-05-13T15:33:12.914Z,23.91
2023-05-13T15:35:38.432Z,23.93
2023-05-13T15:38:03.864Z,23.93
2023-05-13T15:40:28.649Z,23.92
2023-05-13T15:42:53.557Z,23.94
2023-05-13T15:45:17.123Z,23.93
2023-05-13T15:47:43.132Z,23.93
2023-05-13T15:50:08.558Z,23.90
2023-05-13T15:52:33.287Z,23.85
2023-05-13T15:54:57.724Z,23.84
2023-05-13T15:57:21.940Z,23.80
2023-05-13T15:59:46.253Z,23.79
2023-05-13T16:02:13.020Z,23.77
2023-05-13T16:04:38.651Z,23.76
2023-05-13T16:07:06.772Z,23.75
2023-05-13T16:09:31.198Z,23.75
2023-05-13T16:11:55.228Z,23.73
2023-05-13T16:14:21.366Z,23.75
2023-05-13T16:16:46.739Z,23.80
2023-05-13T16:19:12.623Z,23.86
2023-05-13T16:21:44.778Z,23.90
2023-05-13T16:24:09.151Z,23.92
2023-05-13T16:26:33.497Z,23.93
2023-05-13T16:29:00.836Z,23.84
2023-05-13T16:31:26.823Z,23.59
2023-05-13T16:33:53.167Z,23.37
2023-05-13T16:36:18.514Z,23.10
2023-05-13T16:38:43.760Z,22.85
2023-05-13T16:41:07.946Z,22.94
2023-05-13T16:43:40.968Z,22.92
2023-05-13T16:44:51.701Z,22.69
2023-05-13T16:47:18.553Z,22.75
2023-05-13T16:49:44.897Z,22.82
2023-05-13T16:52:08.947Z,22.81
2023-05-13T16:54:57.792Z,22.74
2023-05-13T16:57:22.533Z,22.63
2023-05-13T16:59:56.892Z,22.64
2023-05-13T17:02:32.374Z,22.64
2023-05-13T17:04:57.646Z,22.65
2023-05-13T17:07:25.036Z,22.48
2023-05-13T17:09:48.729Z,22.44
2023-05-13T17:12:16.572Z,22.43
2023-05-13T17:14:41.322Z,22.40
2023-05-13T17:17:08.258Z,22.45
2023-05-13T17:19:32.072Z,22.43
2023-05-13T17:21:58.796Z,22.38
2023-05-13T17:24:22.760Z,22.34
2023-05-13T17:26:47.067Z,22.38
2023-05-13T17:29:11.086Z,22.37
2023-05-13T17:30:22.929Z,22.24
2023-05-13T17:32:48.418Z,22.37
2023-05-13T17:35:12.164Z,22.30
2023-05-13T17:37:39.217Z,22.25
2023-05-13T17:40:06.141Z,22.17
2023-05-13T17:42:32.405Z,22.12
2023-05-13T17:45:03.248Z,21.90
2023-05-13T17:47:27.533Z,21.88
2023-05-13T17:49:53.217Z,21.85
2023-05-13T17:52:18.803Z,21.94
2023-05-13T17:53:27.501Z,21.88
2023-05-13T17:55:53.244Z,21.94
2023-05-13T17:58:16.956Z,21.95
2023-05-13T18:00:43.811Z,21.85
2023-05-13T18:03:08.981Z,21.68
2023-05-13T18:05:34.884Z,21.69
2023-05-13T18:08:00.300Z,21.66
2023-05-13T18:10:27.745Z,21.66
2023-05-13T18:12:52.960Z,21.70
2023-05-13T18:15:19.211Z,21.67
2023-05-13T18:17:46.239Z,21.69
2023-05-13T18:20:11.723Z,21.78
2023-05-13T18:22:38.193Z,21.87
2023-05-13T18:25:04.367Z,21.91
2023-05-13T18:27:31.076Z,21.91
2023-05-13T18:29:59.371Z,21.87
2023-05-13T18:32:23.629Z,21.81
2023-05-13T18:34:49.404Z,21.77
2023-05-13T18:37:18.874Z,21.83
2023-05-13T18:39:45.400Z,21.85
2023-05-13T18:40:55.303Z,21.76
2023-05-13T18:43:21.629Z,21.79
2023-05-13T18:44:31.249Z,21.69
2023-05-13T18:46:57.884Z,21.82
2023-05-13T18:49:24.884Z,21.83
2023-05-13T18:51:49.067Z,21.81
2023-05-13T18:54:13.806Z,21.82
2023-05-13T18:56:37.882Z,21.78
2023-05-13T18:59:01.710Z,21.74
2023-05-13T19:01:28.194Z,21.68
2023-05-13T19:03:56.358Z,21.62
2023-05-13T19:06:22.481Z,21.56
2023-05-13T19:07:31.161Z,21.44
2023-05-13T19:09:55.531Z,21.52
2023-05-13T19:12:21.040Z,21.45
2023-05-13T19:14:45.010Z,21.44
2023-05-13T19:15:55.567Z,21.34
2023-05-13T19:18:20.690Z,21.43
2023-05-13T19:20:46.690Z,21.42
2023-05-13T19:21:56.454Z,21.33
2023-05-13T19:23:05.249Z,21.31
2023-05-13T19:25:31.336Z,21.26
2023-05-13T19:27:56.575Z,21.21
2023-05-13T19:29:05.892Z,21.07
2023-05-13T19:30:15.771Z,21.10
2023-05-13T19:32:41.268Z,21.30
2023-05-13T19:33:50.864Z,21.22
2023-05-13T19:36:14.749Z,21.35
2023-05-13T19:37:24.273Z,21.22
2023-05-13T19:39:48.295Z,21.25
2023-05-13T19:42:12.032Z,21.15
2023-05-13T19:44:38.276Z,21.03
2023-05-13T19:47:03.407Z,21.00
2023-05-13T19:49:48.834Z,20.99
2023-05-13T19:52:13.528Z,21.00
2023-05-13T19:54:37.070Z,20.83
2023-05-13T19:57:01.718Z,20.68
2023-05-13T19:59:27.182Z,20.69
2023-05-13T20:01:52.576Z,20.78
2023-05-13T20:04:16.686Z,20.85
2023-05-13T20:06:45.169Z,20.92
2023-05-13T20:09:11.407Z,21.00
2023-05-13T20:11:38.246Z,20.97
2023-05-13T20:14:28.203Z,20.82
2023-05-13T20:16:54.096Z,20.85
2023-05-13T20:19:18.257Z,20.86
2023-05-13T20:21:44.020Z,20.78
2023-05-13T20:24:09.636Z,20.74
2023-05-13T20:26:35.472Z,20.67
2023-05-13T20:29:01.620Z,20.62
2023-05-13T20:31:27.998Z,20.60
2023-05-13T20:33:54.117Z,20.59
2023-05-13T20:36:19.166Z,20.63
2023-05-13T20:38:43.873Z,20.70
2023-05-13T20:41:09.260Z,20.70
2023-05-13T20:43:37.150Z,20.67
2023-05-13T20:46:02.787Z,20.62
2023-05-13T20:48:29.638Z,20.59
2023-05-13T20:51:04.875Z,20.53
2023-05-13T20:53:28.610Z,20.36
2023-05-13T20:55:53.783Z,20.22
2023-05-13T20:57:04.181Z,20.04
2023-05-13T20:58:13.863Z,19.99
2023-05-13T20:59:23.787Z,19.98
2023-05-13T21:00:33.121Z,19.95
2023-05-13T21:03:01.112Z,19.98
2023-05-13T21:04:10.765Z,19.86
2023-05-13T21:06:35.778Z,19.83
2023-05-13T21:07:44.340Z,19.71
2023-05-13T21:08:54.230Z,19.64
2023-05-13T21:11:19.390Z,19.73
2023-05-13T21:13:44.192Z,19.80
2023-05-13T21:16:33.368Z,19.90
2023-05-13T21:17:43.060Z,19.84
2023-05-13T21:20:08.012Z,20.03
2023-05-13T21:22:32.536Z,20.13
2023-05-13T21:24:59.477Z,20.24
2023-05-13T21:26:09.161Z,20.14
2023-05-13T21:28:33.049Z,20.14
2023-05-13T21:30:56.863Z,20.15
2023-05-13T21:33:21.183Z,20.14
2023-05-13T21:35:44.983Z,20.07
2023-05-13T21:38:12.251Z,20.08
2023-05-13T21:40:35.685Z,20.06
2023-05-13T21:43:00.248Z,20.13
2023-05-13T21:45:24.682Z,20.14
2023-05-13T21:47:48.872Z,20.16
2023-05-13T21:50:17.551Z,20.20
2023-05-13T21:51:27.330Z,20.13
2023-05-13T21:52:41.974Z,20.16
2023-05-13T21:53:50.530Z,20.20
2023-05-13T21:56:14.163Z,20.38
2023-05-13T21:57:24.452Z,20.30
2023-05-13T21:58:34.875Z,20.31
2023-05-13T21:59:45.360Z,20.31
2023-05-13T22:02:09.784Z,20.42
2023-05-13T22:03:19.433Z,20.32
2023-05-13T22:05:43.616Z,20.43
2023-05-13T22:06:53.283Z,20.34
2023-05-13T22:09:16.869Z,20.45
2023-05-13T22:10:27.371Z,20.34
2023-05-13T22:12:53.125Z,20.42
2023-05-13T22:15:16.826Z,20.37
2023-05-13T22:16:26.726Z,20.26
2023-05-13T22:18:51.515Z,20.33
2023-05-13T22:21:15.637Z,20.31
2023-05-13T22:23:40.661Z,20.25
2023-05-13T22:26:05.897Z,20.21
2023-05-13T22:27:15.626Z,20.06
2023-05-13T22:29:39.286Z,20.16
2023-05-13T22:32:11.008Z,20.14
2023-05-13T22:34:35.432Z,20.14
2023-05-13T22:37:03.588Z,20.10
2023-05-13T22:38:23.662Z,19.96
2023-05-13T22:40:48.236Z,19.93
2023-05-13T22:43:14.833Z,19.95
2023-05-13T22:45:39.331Z,19.88
2023-05-13T22:46:49.306Z,19.77
2023-05-13T22:49:15.155Z,19.84
2023-05-13T22:50:24.573Z,19.73
2023-05-13T22:52:48.746Z,19.81
2023-05-13T22:53:57.994Z,19.67
2023-05-13T22:56:23.616Z,19.73
2023-05-13T22:59:09.357Z,19.57
2023-05-13T23:01:35.190Z,19.52
2023-05-13T23:04:07.181Z,19.47
2023-05-13T23:06:32.367Z,19.44
2023-05-13T23:07:43.706Z,19.35
2023-05-13T23:10:08.631Z,19.41
2023-05-13T23:11:18.262Z,19.31
2023-05-13T23:13:44.925Z,19.41
2023-05-13T23:14:54.300Z,19.32
2023-05-13T23:17:20.658Z,19.42
2023-05-13T23:19:45.318Z,19.44
2023-05-13T23:22:11.304Z,19.46
2023-05-13T23:23:19.885Z,19.36
2023-05-13T23:24:28.520Z,19.36
2023-05-13T23:25:38.113Z,19.36
2023-05-13T23:28:26.665Z,19.44
2023-05-13T23:30:54.522Z,19.41
2023-05-13T23:33:21.402Z,19.45
2023-05-13T23:34:30.998Z,19.35
2023-05-13T23:36:57.914Z,19.43
2023-05-13T23:39:23.355Z,19.45
2023-05-13T23:40:31.825Z,19.34
2023-05-13T23:41:41.365Z,19.36
2023-05-13T23:44:05.932Z,19.47
2023-05-13T23:45:15.782Z,19.34
2023-05-13T23:46:25.642Z,19.36
2023-05-13T23:48:49.735Z,19.46
2023-05-13T23:51:15.540Z,19.41
2023-05-13T23:53:41.043Z,19.44
2023-05-13T23:54:51.916Z,19.34
2023-05-13T23:56:01.623Z,19.38
2023-05-13T23:58:26.566Z,19.54
